createdAt,value
2023-05-02T00:07:53.410Z,2.87
2023-05-02T00:17:57.397Z,2.64
2023-05-02T00:28:02.158Z,2.44
2023-05-02T00:38:06.373Z,2.24
2023-05-02T00:48:11.038Z,2.28
2023-05-02T00:58:16.918Z,2.30
2023-05-02T01:08:30.236Z,2.38
2023-05-02T01:18:38.907Z,2.29
2023-05-02T01:29:00.416Z,2.34
2023-05-02T01:39:06.236Z,2.27
2023-05-02T01:49:09.547Z,2.14
2023-05-02T01:59:22.209Z,2.00
2023-05-02T02:09:26.116Z,2.00
2023-05-02T02:19:32.205Z,2.03
2023-05-02T02:29:35.395Z,1.91
2023-05-02T02:40:04.054Z,1.71
2023-05-02T02:50:36.244Z,1.61
2023-05-02T03:00:40.102Z,1.73
2023-05-02T03:10:43.276Z,1.86
2023-05-02T03:20:47.246Z,2.17
2023-05-02T03:30:50.600Z,2.30
2023-05-02T03:40:57.491Z,2.27
2023-05-02T03:51:03.385Z,2.15
2023-05-02T04:01:15.320Z,2.12
2023-05-02T04:11:19.778Z,2.31
2023-05-02T04:21:23.910Z,2.62
2023-05-02T04:31:27.522Z,3.01
2023-05-02T04:41:30.939Z,3.55
2023-05-02T04:51:39.020Z,4.14
2023-05-02T05:01:43.095Z,4.90
2023-05-02T05:11:46.689Z,5.63
2023-05-02T05:21:51.230Z,6.46
2023-05-02T05:31:55.609Z,7.33
2023-05-02T05:42:01.026Z,8.21
2023-05-02T05:52:05.190Z,9.05
2023-05-02T06:02:09.531Z,9.75
2023-05-02T06:12:12.961Z,10.48
2023-05-02T06:22:16.168Z,10.87
2023-05-02T06:32:19.899Z,11.25
2023-05-02T06:42:23.157Z,11.54
2023-05-02T06:52:26.257Z,11.94
2023-05-02T07:02:29.406Z,12.32
2023-05-02T07:12:32.795Z,12.90
2023-05-02T07:22:35.956Z,13.39
2023-05-02T07:32:39.106Z,13.75
2023-05-02T07:42:42.345Z,14.10
2023-05-02T07:52:45.481Z,14.43
2023-05-02T08:02:48.715Z,15.30
2023-05-02T08:12:51.970Z,16.53
2023-05-02T08:22:55.913Z,17.62
2023-05-02T08:33:00.392Z,18.74
2023-05-02T08:43:05.157Z,19.60
2023-05-02T08:53:12.505Z,20.21
2023-05-02T09:03:36.021Z,20.62
2023-05-02T09:13:40.962Z,20.89
2023-05-02T09:23:52.544Z,21.17
2023-05-02T09:33:57.171Z,21.39
2023-05-02T09:44:00.520Z,21.78
2023-05-02T09:54:04.629Z,22.17
2023-05-02T10:04:16.759Z,22.56
2023-05-02T10:14:22.792Z,22.82
2023-05-02T10:24:27.826Z,23.03
2023-05-02T10:34:34.265Z,23.42
2023-05-02T10:44:41.709Z,23.64
2023-05-02T10:54:45.037Z,23.75
2023-05-02T11:05:08.138Z,23.59
2023-05-02T11:15:12.667Z,23.66
2023-05-02T11:25:34.329Z,23.73
2023-05-02T11:35:42.232Z,23.43
2023-05-02T11:45:46.080Z,23.45
2023-05-02T11:55:54.680Z,23.74
2023-05-02T12:06:11.470Z,23.11
2023-05-02T12:16:17.188Z,21.89
2023-05-02T12:26:33.136Z,21.78
2023-05-02T12:36:45.291Z,22.39
2023-05-02T12:47:00.926Z,22.96
2023-05-02T12:57:04.814Z,22.62
2023-05-02T13:07:08.257Z,21.92
2023-05-02T13:17:12.098Z,21.73
2023-05-02T13:27:15.644Z,21.42
2023-05-02T13:37:18.937Z,20.60
2023-05-02T13:47:22.916Z,19.73
2023-05-02T13:57:26.043Z,18.80
2023-05-02T14:07:29.683Z,18.04
2023-05-02T14:17:33.353Z,17.52
2023-05-02T14:27:36.883Z,17.01
2023-05-02T14:37:39.991Z,16.46
2023-05-02T14:47:43.614Z,15.92
2023-05-02T14:57:47.326Z,15.77
2023-05-02T15:07:50.533Z,15.59
2023-05-02T15:17:53.894Z,15.39
2023-05-02T15:27:57.009Z,15.06
2023-05-02T15:38:00.762Z,14.62
2023-05-02T15:48:04.073Z,14.40
2023-05-02T15:58:07.695Z,14.42
2023-05-02T16:08:11.543Z,14.28
2023-05-02T16:18:15.549Z,14.19
2023-05-02T16:28:18.800Z,14.05
2023-05-02T16:38:21.869Z,14.00
2023-05-02T16:48:24.976Z,13.95
2023-05-02T16:58:29.300Z,14.09
2023-05-02T17:08:33.260Z,14.18
2023-05-02T17:18:39.127Z,14.20
2023-05-02T17:28:46.516Z,14.17
2023-05-02T17:38:49.759Z,13.95
2023-05-02T17:48:52.919Z,13.67
2023-05-02T17:58:56.436Z,13.57
2023-05-02T18:09:01.787Z,13.37
2023-05-02T18:19:13.296Z,13.21
2023-05-02T18:29:16.486Z,13.10
2023-05-02T18:39:21.655Z,12.95
2023-05-02T18:49:26.359Z,12.92
2023-05-02T18:59:29.876Z,12.85
2023-05-02T19:09:33.008Z,12.88
2023-05-02T19:19:36.258Z,12.77
2023-05-02T19:29:39.415Z,12.70
2023-05-02T19:39:42.470Z,12.61
2023-05-02T19:49:45.731Z,12.50
2023-05-02T19:59:48.833Z,12.46
2023-05-02T20:09:51.900Z,12.25
2023-05-02T20:19:55.077Z,11.99
2023-05-02T20:30:01.793Z,11.91
2023-05-02T20:40:09.914Z,11.70
2023-05-02T20:50:13.224Z,11.69
2023-05-02T21:00:16.689Z,11.79
2023-05-02T21:10:19.801Z,11.92
2023-05-02T21:20:23.054Z,11.81
2023-05-02T21:30:26.216Z,11.80
2023-05-02T21:40:31.741Z,11.82
2023-05-02T21:50:36.653Z,11.77
2023-05-02T22:00:41.643Z,11.79
2023-05-02T22:10:45.483Z,11.53
2023-05-02T22:20:48.759Z,11.49
2023-05-02T22:30:51.818Z,11.55
2023-05-02T22:40:54.905Z,11.59
2023-05-02T22:50:58.109Z,11.55
2023-05-02T23:01:01.831Z,11.63
2023-05-02T23:11:04.927Z,11.76
2023-05-02T23:21:15.180Z,11.87
2023-05-02T23:31:18.363Z,11.97
2023-05-02T23:41:22.307Z,12.00
2023-05-02T23:51:25.589Z,11.96
